createdAt,value
2019-05-10T00:03:08.107Z,26.20
2019-05-10T00:08:44.810Z,28.40
2019-05-10T00:14:25.869Z,28.02
2019-05-10T00:19:47.543Z,29.77
2019-05-10T00:25:09.598Z,30.95
2019-05-10T00:30:31.444Z,30.55
2019-05-10T00:35:53.688Z,32.10
2019-05-10T00:41:15.289Z,33.35
2019-05-10T00:46:37.629Z,32.13
2019-05-10T00:51:59.744Z,33.95
2019-05-10T00:57:21.387Z,33.95
2019-05-10T01:02:42.923Z,31.35
2019-05-10T01:08:04.675Z,31.45
2019-05-10T01:13:26.418Z,31.65
2019-05-10T01:18:47.592Z,31.70
2019-05-10T01:24:09.201Z,31.12
2019-05-10T01:29:30.792Z,32.10
2019-05-10T01:34:52.380Z,34.13
2019-05-10T01:40:14.414Z,32.40
2019-05-10T01:45:35.760Z,32.35
2019-05-10T01:50:57.511Z,32.80
2019-05-10T01:56:19.092Z,33.10
2019-05-10T02:01:40.843Z,31.93
2019-05-10T02:07:02.630Z,31.70
2019-05-10T02:12:25.758Z,33.90
2019-05-10T02:17:47.569Z,31.87
2019-05-10T02:23:09.296Z,33.30
2019-05-10T02:28:31.273Z,33.15
2019-05-10T02:33:53.439Z,33.45
2019-05-10T02:39:14.905Z,32.70
2019-05-10T02:44:36.876Z,30.45
2019-05-10T02:49:59.333Z,32.28
2019-05-10T02:55:22.015Z,29.92
2019-05-10T03:00:45.828Z,30.85
2019-05-10T03:06:07.734Z,33.53
2019-05-10T03:11:32.669Z,30.02
2019-05-10T03:16:54.108Z,24.67
2019-05-10T03:22:18.025Z,22.45
2019-05-10T03:27:39.805Z,22.67
2019-05-10T03:33:01.659Z,24.90
2019-05-10T03:38:23.605Z,24.00
2019-05-10T03:43:45.389Z,23.52
2019-05-10T03:49:07.107Z,21.25
2019-05-10T03:54:28.939Z,19.95
2019-05-10T03:59:50.347Z,21.62
2019-05-10T04:05:12.628Z,21.23
2019-05-10T04:10:34.073Z,21.68
2019-05-10T04:15:55.693Z,21.90
2019-05-10T04:21:17.459Z,21.40
2019-05-10T04:26:39.505Z,21.93
2019-05-10T04:32:01.195Z,22.20
2019-05-10T04:37:22.960Z,25.10
2019-05-10T04:42:44.798Z,24.00
2019-05-10T04:48:06.537Z,21.10
2019-05-10T04:53:28.381Z,40.05
2019-05-10T04:58:49.741Z,25.82
2019-05-10T05:04:11.206Z,23.73
2019-05-10T05:09:32.826Z,24.40
2019-05-10T05:14:54.359Z,23.12
2019-05-10T05:20:16.126Z,22.25
2019-05-10T05:25:40.242Z,26.30
2019-05-10T05:31:01.502Z,26.07
2019-05-10T05:36:23.280Z,26.77
2019-05-10T05:41:48.905Z,24.67
2019-05-10T05:47:08.514Z,21.15
2019-05-10T05:52:30.416Z,22.07
2019-05-10T05:57:52.189Z,22.65
2019-05-10T06:03:19.265Z,21.60
2019-05-10T06:08:37.199Z,23.77
2019-05-10T06:14:03.925Z,21.17
2019-05-10T06:19:29.380Z,23.35
2019-05-10T06:24:46.651Z,28.90
2019-05-10T06:30:09.910Z,24.37
2019-05-10T06:35:31.848Z,24.75
2019-05-10T06:40:53.379Z,20.48
2019-05-10T06:46:15.170Z,19.48
2019-05-10T06:51:36.778Z,23.18
2019-05-10T06:56:58.447Z,24.15
2019-05-10T07:02:26.002Z,22.22
2019-05-10T07:07:45.402Z,18.98
2019-05-10T07:13:07.412Z,19.57
2019-05-10T07:18:29.408Z,20.37
2019-05-10T07:23:50.940Z,25.43
2019-05-10T07:29:27.910Z,27.00
2019-05-10T07:34:36.192Z,24.90
2019-05-10T07:39:57.361Z,24.10
2019-05-10T07:45:25.647Z,24.25
2019-05-10T07:50:49.688Z,29.57
2019-05-10T07:56:08.006Z,19.75
2019-05-10T08:01:32.704Z,19.50
2019-05-10T08:06:53.395Z,19.17
2019-05-10T08:12:15.249Z,19.65
2019-05-10T08:17:43.134Z,20.57
2019-05-10T08:23:02.825Z,18.77
2019-05-10T08:28:27.872Z,19.80
2019-05-10T08:33:53.670Z,20.48
2019-05-10T08:39:13.986Z,18.73
2019-05-10T08:44:35.842Z,16.52
2019-05-10T08:50:11.798Z,16.10
2019-05-10T08:55:22.628Z,15.95
2019-05-10T09:00:54.277Z,18.52
2019-05-10T09:06:11.885Z,17.73
2019-05-10T09:11:32.749Z,15.55
2019-05-10T09:17:00.776Z,15.55
2019-05-10T09:22:26.042Z,17.32
2019-05-10T09:28:04.503Z,22.07
2019-05-10T09:33:22.456Z,21.55
2019-05-10T09:38:46.375Z,28.40
2019-05-10T09:44:08.185Z,31.27
2019-05-10T09:49:30.061Z,11.10
2019-05-10T09:54:51.136Z,13.00
2019-05-10T10:00:17.459Z,9.98
2019-05-10T10:05:40.305Z,9.70
2019-05-10T10:11:13.302Z,21.52
2019-05-10T10:16:28.070Z,9.43
2019-05-10T10:21:49.505Z,10.13
2019-05-10T10:27:11.070Z,12.25
2019-05-10T10:32:34.871Z,19.32
2019-05-10T10:37:57.541Z,9.13
2019-05-10T10:43:19.977Z,8.68
2019-05-10T10:48:43.665Z,20.72
2019-05-10T10:54:07.411Z,23.42
2019-05-10T10:59:29.430Z,35.25
2019-05-10T11:04:50.755Z,12.82
2019-05-10T11:10:18.994Z,18.20
2019-05-10T11:15:36.773Z,27.35
2019-05-10T11:21:01.761Z,11.65
2019-05-10T11:26:26.768Z,25.92
2019-05-10T11:31:50.174Z,14.23
2019-05-10T11:37:10.647Z,10.05
2019-05-10T11:42:32.509Z,15.98
2019-05-10T11:47:59.089Z,13.62
2019-05-10T11:53:17.976Z,7.90
2019-05-10T11:58:45.964Z,30.97
2019-05-10T12:04:05.153Z,12.03
2019-05-10T12:09:27.068Z,10.58
2019-05-10T12:14:48.913Z,12.28
2019-05-10T12:20:12.529Z,6.50
2019-05-10T12:26:13.469Z,4.10
2019-05-10T12:30:58.334Z,3.12
2019-05-10T12:36:26.066Z,3.15
2019-05-10T12:41:47.805Z,3.00
2019-05-10T12:47:07.856Z,2.98
2019-05-10T12:52:31.933Z,2.83
2019-05-10T12:57:53.525Z,2.60
2019-05-10T13:03:18.856Z,4.20
2019-05-10T13:08:38.682Z,2.75
2019-05-10T13:14:01.071Z,2.52
2019-05-10T13:19:24.470Z,2.62
2019-05-10T13:24:46.309Z,2.90
2019-05-10T13:30:09.551Z,3.00
2019-05-10T13:35:31.316Z,4.08
2019-05-10T13:40:53.243Z,2.65
2019-05-10T13:46:14.712Z,3.90
2019-05-10T13:51:36.371Z,2.30
2019-05-10T13:56:58.104Z,2.60
2019-05-10T14:02:23.018Z,4.20
2019-05-10T14:07:50.965Z,3.10
2019-05-10T14:13:07.424Z,2.40
2019-05-10T14:18:29.354Z,3.00
2019-05-10T14:23:51.248Z,2.60
2019-05-10T14:29:12.908Z,2.08
2019-05-10T14:34:37.921Z,2.20
2019-05-10T14:39:58.502Z,2.15
2019-05-10T14:45:20.696Z,2.10
2019-05-10T14:50:46.214Z,2.40
2019-05-10T14:56:08.033Z,2.15
2019-05-10T15:01:30.234Z,3.50
2019-05-10T15:06:51.853Z,2.42
2019-05-10T15:12:16.289Z,2.20
2019-05-10T15:17:37.286Z,2.37
2019-05-10T15:22:59.458Z,1.90
2019-05-10T15:28:21.065Z,2.20
2019-05-10T15:33:42.865Z,3.35
2019-05-10T15:39:06.019Z,1.95
2019-05-10T15:44:31.205Z,2.40
2019-05-10T15:49:54.657Z,2.72
2019-05-10T15:55:17.072Z,2.90
2019-05-10T16:00:41.545Z,3.33
2019-05-10T16:06:02.935Z,3.25
2019-05-10T16:11:24.454Z,3.92
2019-05-10T16:16:46.321Z,3.30
2019-05-10T16:22:07.839Z,3.77
2019-05-10T16:27:33.959Z,3.70
2019-05-10T16:32:53.619Z,5.30
2019-05-10T16:38:15.812Z,7.35
2019-05-10T16:43:38.251Z,7.00
2019-05-10T16:49:00.076Z,10.90
2019-05-10T16:54:25.517Z,6.92
2019-05-10T16:59:46.125Z,9.43
2019-05-10T17:05:09.666Z,7.67
2019-05-10T17:10:32.914Z,15.78
2019-05-10T17:15:55.617Z,7.00
2019-05-10T17:21:18.867Z,4.12
2019-05-10T17:26:41.082Z,3.62
2019-05-10T17:32:04.592Z,5.62
2019-05-10T17:37:29.861Z,13.15
2019-05-10T17:42:51.606Z,9.75
2019-05-10T17:48:13.864Z,9.33
2019-05-10T17:53:36.554Z,14.03
2019-05-10T17:58:57.992Z,9.98
2019-05-10T18:04:20.402Z,4.75
2019-05-10T18:09:42.369Z,4.65
2019-05-10T18:15:05.213Z,4.97
2019-05-10T18:20:27.138Z,7.30
2019-05-10T18:25:52.514Z,9.70
2019-05-10T18:31:13.102Z,11.75
2019-05-10T18:36:51.042Z,5.35
2019-05-10T18:42:10.023Z,7.40
2019-05-10T18:47:32.783Z,5.40
2019-05-10T18:52:54.795Z,5.20
2019-05-10T18:58:17.245Z,7.70
2019-05-10T19:03:39.425Z,6.97
2019-05-10T19:09:01.454Z,4.80
2019-05-10T19:14:29.013Z,5.47
2019-05-10T19:19:59.271Z,6.03
2019-05-10T19:25:24.163Z,5.17
2019-05-10T19:31:03.800Z,4.55
2019-05-10T19:36:14.747Z,4.62
2019-05-10T19:41:36.445Z,4.97
2019-05-10T19:46:58.396Z,7.10
2019-05-10T19:52:25.616Z,5.78
2019-05-10T19:57:44.224Z,5.03
2019-05-10T20:03:06.337Z,4.60
2019-05-10T20:08:28.119Z,4.50
2019-05-10T20:13:50.401Z,9.28
2019-05-10T20:19:12.809Z,3.98
2019-05-10T20:24:42.142Z,10.93
2019-05-10T20:30:04.405Z,10.40
2019-05-10T20:35:26.142Z,9.93
2019-05-10T20:40:48.097Z,7.42
2019-05-10T20:46:11.577Z,9.95
2019-05-10T20:51:34.123Z,6.83
2019-05-10T20:56:56.100Z,7.35
2019-05-10T21:02:20.177Z,7.45
2019-05-10T21:07:43.606Z,6.55
2019-05-10T21:13:08.168Z,5.83
2019-05-10T21:18:30.325Z,7.03
2019-05-10T21:23:52.166Z,6.60
2019-05-10T21:29:13.895Z,7.85
2019-05-10T21:34:35.435Z,8.53
2019-05-10T21:39:57.656Z,8.68
2019-05-10T21:45:19.975Z,7.85
2019-05-10T21:50:42.115Z,6.50
2019-05-10T21:56:03.979Z,5.62
2019-05-10T22:01:26.022Z,6.70
2019-05-10T22:06:47.942Z,5.80
2019-05-10T22:12:10.287Z,7.00
2019-05-10T22:17:32.082Z,7.65
2019-05-10T22:22:53.704Z,7.28
2019-05-10T22:28:16.215Z,6.67
2019-05-10T22:33:37.866Z,7.95
2019-05-10T22:39:07.131Z,6.22
2019-05-10T22:44:23.369Z,8.60
2019-05-10T22:49:45.399Z,6.37
2019-05-10T22:55:07.754Z,5.83
2019-05-10T23:00:29.622Z,6.65
2019-05-10T23:05:51.467Z,6.25
2019-05-10T23:11:13.341Z,6.92
2019-05-10T23:16:34.833Z,6.67
2019-05-10T23:21:56.646Z,6.33
2019-05-10T23:27:18.572Z,6.25
2019-05-10T23:32:40.189Z,5.72
2019-05-10T23:38:02.010Z,4.12
2019-05-10T23:43:23.669Z,5.12
2019-05-10T23:48:45.620Z,4.35
2019-05-10T23:54:07.416Z,4.15
2019-05-10T23:59:29.082Z,4.15
